Time;durP1;ratioP1;P1;durP2;ratioP2;P2;SDS_P1;SDS_P2;PMS_P1;PMS_P2;Temp;Humidity;BMP_temperature;BMP_pressure;BME280_temperature;BME280_humidity;BME280_pressure;Samples;Min_cycle;Max_cycle;Signal;HPM_P1;HPM_P2
2022/01/17 00:01:29;;;;;;;18.88;8.93;;;5.80;99.90;;;;;;6272695;22;20004;-89
2022/01/17 00:03:55;;;;;;;16.13;7.45;;;5.80;99.90;;;;;;6272465;22;20004;-90
2022/01/17 00:06:22;;;;;;;19.33;8.20;;;6.20;99.90;;;;;;6273342;22;20070;-90
2022/01/17 00:08:49;;;;;;;11.68;7.95;;;5.70;99.90;;;;;;6246367;22;20349;-91
2022/01/17 00:11:16;;;;;;;35.03;9.70;;;5.60;99.90;;;;;;6245534;22;20000;-91
2022/01/17 00:13:44;;;;;;;14.82;8.10;;;5.70;99.90;;;;;;6245511;22;20082;-89
2022/01/17 00:16:14;;;;;;;23.65;7.82;;;5.70;99.90;;;;;;6245889;22;20391;-89
2022/01/17 00:19:04;;;;;;;16.30;8.15;;;5.60;99.90;;;;;;6272996;22;20003;-89
2022/01/17 00:21:25;;;;;;;24.58;8.98;;;5.60;99.90;;;;;;6271288;22;20007;-89
2022/01/17 00:23:51;;;;;;;11.45;7.50;;;5.60;99.90;;;;;;6246587;22;20394;-90
2022/01/17 00:26:17;;;;;;;16.75;8.57;;;5.60;99.90;;;;;;6245326;22;20000;-90
2022/01/17 00:28:43;;;;;;;15.98;8.65;;;5.90;99.90;;;;;;6272505;22;20586;-88
2022/01/17 00:31:11;;;;;;;16.05;9.40;;;5.60;99.90;;;;;;6244816;22;20000;-92
2022/01/17 00:33:37;;;;;;;16.23;9.73;;;5.60;99.90;;;;;;6244934;22;20008;-88
2022/01/17 00:36:05;;;;;;;43.25;11.82;;;5.60;99.90;;;;;;6245520;22;20031;-91
2022/01/17 00:38:31;;;;;;;19.38;8.43;;;5.60;99.90;;;;;;6272188;22;20010;-88
2022/01/17 00:40:57;;;;;;;51.90;9.35;;;6.40;99.90;;;;;;6272499;22;20032;-88
2022/01/17 00:43:22;;;;;;;16.20;9.15;;;5.70;99.90;;;;;;6272880;22;20039;-89
2022/01/17 00:45:48;;;;;;;12.05;8.10;;;6.40;99.90;;;;;;6272600;22;20077;-90
2022/01/17 00:48:14;;;;;;;18.17;8.55;;;;;;;;;;6244987;22;20249;-88
2022/01/17 00:50:41;;;;;;;22.08;8.38;;;;;;;;;;6244910;22;20075;-91
2022/01/17 00:53:10;;;;;;;49.85;11.85;;;5.90;99.90;;;;;;6244841;22;20015;-89
2022/01/17 00:55:37;;;;;;;52.83;15.90;;;5.90;99.90;;;;;;6245313;22;20087;-90
2022/01/17 00:58:04;;;;;;;64.35;16.33;;;6.00;99.90;;;;;;6244974;22;20011;-88
2022/01/17 01:00:30;;;;;;;23.83;11.50;;;5.90;99.90;;;;;;6272201;22;20000;-90
2022/01/17 01:02:56;;;;;;;56.70;12.07;;;6.00;99.90;;;;;;6271739;22;20015;-92
2022/01/17 01:05:22;;;;;;;26.90;12.98;;;6.00;99.90;;;;;;6273067;22;20004;-88
2022/01/17 01:07:48;;;;;;;46.60;14.68;;;6.10;99.90;;;;;;6245171;22;20340;-88
2022/01/17 01:10:14;;;;;;;53.60;15.75;;;;;;;;;;6245027;22;20458;-91
2022/01/17 01:12:42;;;;;;;33.67;14.13;;;6.10;99.90;;;;;;6245100;22;20012;-88
2022/01/17 01:15:12;;;;;;;22.20;10.68;;;6.20;99.90;;;;;;6244699;22;20007;-93
2022/01/17 01:17:51;;;;;;;58.13;13.45;;;6.20;99.90;;;;;;6271662;22;20004;-89
2022/01/17 01:20:47;;;;;;;24.08;11.38;;;6.30;99.90;;;;;;6272272;22;20011;-89
2022/01/17 01:28:37;;;;;;;16.23;9.40;;;6.40;99.90;;;;;;6271606;22;20010;-89
2022/01/17 01:31:08;;;;;;;25.33;8.95;;;6.40;99.90;;;;;;6271694;22;19996;-89
2022/01/17 01:33:38;;;;;;;20.65;7.43;;;6.50;99.90;;;;;;6272263;22;20006;-89
2022/01/17 01:36:15;;;;;;;46.75;8.85;;;6.50;99.90;;;;;;6244458;22;20039;-90
2022/01/17 01:38:41;;;;;;;16.85;8.32;;;6.20;99.90;;;;;;6244700;22;20348;-88
2022/01/17 01:41:07;;;;;;;48.33;15.77;;;6.50;99.90;;;;;;6244420;22;20003;-88
2022/01/17 01:43:33;;;;;;;49.47;12.20;;;6.50;99.90;;;;;;6271721;22;20023;-89
2022/01/17 01:46:01;;;;;;;100.75;20.58;;;6.50;99.90;;;;;;6271952;22;20080;-90
2022/01/17 01:48:29;;;;;;;150.20;25.43;;;6.70;99.90;;;;;;6273185;22;20321;-89
2022/01/17 01:50:55;;;;;;;36.63;15.35;;;6.60;99.90;;;;;;6275688;22;19996;-89
2022/01/17 01:53:23;;;;;;;23.77;13.88;;;6.60;99.90;;;;;;6255971;22;20005;-88
2022/01/17 01:55:51;;;;;;;18.27;12.45;;;6.60;99.90;;;;;;6283041;22;20002;-89
2022/01/17 01:58:17;;;;;;;24.27;13.38;;;6.60;99.90;;;;;;6281472;22;20075;-90
2022/01/17 02:00:45;;;;;;;101.95;20.52;;;6.50;99.90;;;;;;6247634;22;20000;-89
2022/01/17 02:03:11;;;;;;;107.60;20.95;;;6.60;99.90;;;;;;6248548;22;20011;-88
2022/01/17 02:05:37;;;;;;;65.07;19.30;;;6.60;99.90;;;;;;6248576;22;20000;-89
2022/01/17 02:08:02;;;;;;;126.32;26.95;;;6.60;99.90;;;;;;6248760;22;20007;-89
2022/01/17 02:10:29;;;;;;;73.95;24.92;;;6.60;99.90;;;;;;6249539;22;20011;-89
2022/01/17 02:12:57;;;;;;;71.53;23.88;;;6.50;99.90;;;;;;6249557;22;20031;-90
2022/01/17 02:15:23;;;;;;;148.50;30.85;;;6.60;99.90;;;;;;6248827;22;20493;-89
2022/01/17 02:17:56;;;;;;;56.95;24.77;;;;;;;;;;6248451;22;20291;-89
2022/01/17 02:20:44;;;;;;;50.97;24.77;;;7.30;99.90;;;;;;6276006;22;19995;-89
2022/01/17 02:23:13;;;;;;;;;;;6.50;99.90;;;;;;6276058;22;20020;-89
2022/01/17 02:25:39;;;;;;;42.05;21.40;;;6.50;99.90;;;;;;6249099;22;19906;-89
2022/01/17 02:28:05;;;;;;;30.35;19.08;;;6.50;99.90;;;;;;6276470;22;20336;-90
2022/01/17 02:30:32;;;;;;;25.13;18.10;;;6.60;99.90;;;;;;6277152;22;20003;-90
2022/01/17 02:33:05;;;;;;;29.00;19.48;;;6.60;99.90;;;;;;6277733;22;20075;-93
2022/01/17 02:35:31;;;;;;;23.25;16.95;;;6.60;99.90;;;;;;6275469;22;20003;-90
2022/01/17 02:37:57;;;;;;;52.80;19.60;;;6.50;99.90;;;;;;6276380;22;20034;-92
2022/01/17 02:40:24;;;;;;;27.50;18.58;;;6.70;99.90;;;;;;6249024;22;20030;-90
2022/01/17 02:42:56;;;;;;;23.88;17.13;;;6.50;99.90;;;;;;6248537;22;20289;-91
2022/01/17 02:48:01;;;;;;;38.47;17.92;;;6.60;99.90;;;;;;6275963;22;20027;-90
2022/01/17 02:50:27;;;;;;;47.55;17.35;;;6.50;99.90;;;;;;6248447;22;20004;-91
2022/01/17 02:53:02;;;;;;;37.90;16.23;;;6.50;99.90;;;;;;6248087;22;20448;-91
2022/01/17 02:55:31;;;;;;;21.38;15.15;;;6.80;99.90;;;;;;6275626;22;20007;-92
2022/01/17 02:58:05;;;;;;;59.33;16.75;;;6.70;99.90;;;;;;6249016;22;20003;-89
2022/01/17 03:00:31;;;;;;;53.58;18.63;;;6.60;99.90;;;;;;6248494;22;20008;-89
2022/01/17 03:02:57;;;;;;;77.18;22.45;;;6.70;99.90;;;;;;6276626;22;20313;-91
2022/01/17 03:05:22;;;;;;;72.47;22.10;;;6.60;99.90;;;;;;6275585;22;20054;-91
2022/01/17 03:07:51;;;;;;;25.00;16.38;;;6.70;99.90;;;;;;6248642;22;20083;-91
2022/01/17 03:10:39;;;;;;;28.55;16.70;;;6.70;99.90;;;;;;6248629;22;20401;-90
2022/01/17 03:13:19;;;;;;;52.15;21.85;;;6.70;99.90;;;;;;6247744;22;20004;-91
2022/01/17 03:15:58;;;;;;;;;;;;;;;;;;;;;
2022/01/17 03:18:24;;;;;;;;;;;6.70;99.90;;;;;;6277043;22;20055;-90
2022/01/17 03:20:53;;;;;;;24.80;15.02;;;6.80;99.90;;;;;;6248249;22;19987;-91
2022/01/17 03:23:22;;;;;;;20.33;15.20;;;6.70;99.90;;;;;;6274631;22;20061;-90
2022/01/17 03:25:48;;;;;;;22.45;15.05;;;6.80;99.90;;;;;;6273299;22;20056;-93
2022/01/17 03:28:14;;;;;;;33.85;15.95;;;6.80;99.90;;;;;;6246343;22;20082;-91
2022/01/17 03:30:43;;;;;;;26.83;17.35;;;6.70;99.90;;;;;;6273171;22;20075;-90
2022/01/17 03:33:12;;;;;;;24.00;16.48;;;6.70;99.90;;;;;;6246028;22;20012;-90
2022/01/17 03:35:39;;;;;;;29.90;17.65;;;6.80;99.90;;;;;;6273437;22;20099;-91
2022/01/17 03:38:06;;;;;;;29.50;16.65;;;6.70;99.90;;;;;;6273832;22;20004;-91
2022/01/17 03:40:33;;;;;;;32.42;16.90;;;6.20;99.90;;;;;;6275803;22;20007;-90
2022/01/17 03:42:59;;;;;;;41.92;17.70;;;6.60;99.90;;;;;;6248649;22;20018;-91
2022/01/17 03:45:24;;;;;;;23.58;16.83;;;6.60;99.90;;;;;;6274490;22;20003;-90
2022/01/17 03:47:51;;;;;;;37.90;17.17;;;6.70;99.90;;;;;;6248027;22;20018;-88
2022/01/17 03:50:20;;;;;;;25.48;16.50;;;6.70;99.90;;;;;;6246363;22;20348;-90
2022/01/17 03:52:46;;;;;;;;;;;6.80;99.90;;;;;;6273807;22;20031;-93
2022/01/17 03:55:18;;;;;;;90.50;22.90;;;6.70;99.90;;;;;;6273535;22;19923;-89
2022/01/17 03:57:44;;;;;;;84.30;21.08;;;6.70;99.90;;;;;;6272897;22;20000;-92
2022/01/17 04:00:14;;;;;;;90.70;21.17;;;6.70;99.90;;;;;;6245736;22;19999;-92
2022/01/17 04:02:40;;;;;;;25.55;14.55;;;6.60;99.90;;;;;;6246728;22;20023;-90
2022/01/17 04:05:07;;;;;;;81.82;17.17;;;6.70;99.90;;;;;;6248303;22;20289;-91
2022/01/17 04:07:32;;;;;;;64.68;15.60;;;6.90;99.90;;;;;;6248231;22;20007;-90
2022/01/17 04:10:06;;;;;;;19.58;12.85;;;6.60;99.90;;;;;;6274875;22;20003;-89
2022/01/17 04:12:31;;;;;;;74.78;15.32;;;6.60;99.90;;;;;;6274501;22;20000;-91
2022/01/17 04:14:57;;;;;;;80.78;18.80;;;6.60;99.90;;;;;;6278788;22;20003;-90
2022/01/17 04:17:28;;;;;;;37.75;14.57;;;6.60;99.90;;;;;;6276508;22;20034;-93
2022/01/17 04:20:04;;;;;;;35.53;15.77;;;6.60;99.90;;;;;;6251190;22;20000;-92
2022/01/17 04:22:35;;;;;;;34.03;16.17;;;6.70;99.90;;;;;;6252890;22;20015;-90
2022/01/17 04:25:04;;;;;;;24.52;14.60;;;6.70;99.90;;;;;;6276550;22;20010;-90
2022/01/17 04:27:29;;;;;;;25.58;14.27;;;6.70;99.90;;;;;;6283534;22;20000;-90
2022/01/17 04:29:55;;;;;;;23.52;13.65;;;6.80;99.90;;;;;;6288149;22;20038;-88
2022/01/17 04:32:21;;;;;;;29.35;13.45;;;7.20;99.90;;;;;;6288945;22;19995;-88
2022/01/17 04:34:47;;;;;;;23.48;14.18;;;6.70;99.90;;;;;;6283265;22;20004;-90
2022/01/17 04:37:13;;;;;;;25.05;15.85;;;6.70;99.90;;;;;;6252095;22;20084;-89
2022/01/17 04:39:38;;;;;;;48.00;18.88;;;6.70;99.90;;;;;;6247768;22;20011;-88
2022/01/17 04:42:11;;;;;;;38.67;20.08;;;6.70;99.90;;;;;;6273809;22;20081;-89
2022/01/17 04:47:25;;;;;;;27.45;17.48;;;6.70;99.90;;;;;;6276583;22;20054;-89
2022/01/17 04:49:51;;;;;;;60.00;22.13;;;6.80;99.90;;;;;;6252551;22;20014;-89
2022/01/17 04:52:18;;;;;;;70.03;25.65;;;6.70;99.90;;;;;;6280321;22;20055;-89
2022/01/17 04:54:53;;;;;;;35.47;19.55;;;6.60;99.90;;;;;;6278272;22;20003;-91
2022/01/17 04:57:31;;;;;;;42.08;19.33;;;6.50;99.90;;;;;;6251084;22;20007;-88
2022/01/17 05:00:00;;;;;;;29.25;18.52;;;6.50;99.90;;;;;;6280715;22;20436;-89
2022/01/17 05:02:27;;;;;;;;;;;6.50;99.90;;;;;;6282582;22;20019;-89
2022/01/17 05:04:53;;;;;;;101.23;24.57;;;6.50;99.90;;;;;;6281586;22;19900;-90
2022/01/17 05:07:24;;;;;;;30.55;18.90;;;6.50;99.90;;;;;;6279750;22;20243;-92
2022/01/17 05:10:23;;;;;;;;;;;;;;;;;;;;;
2022/01/17 05:13:19;;;;;;;30.30;18.27;;;6.50;99.90;;;;;;6259310;22;20042;-91
2022/01/17 05:16:02;;;;;;;;;;;;;;;;;;;;;
2022/01/17 05:21:38;;;;;;;27.05;18.63;;;6.70;99.90;;;;;;6280399;22;20015;-91
2022/01/17 05:27:07;;;;;;;26.73;17.10;;;6.70;99.90;;;;;;6277705;22;19996;-93
2022/01/17 05:29:33;;;;;;;42.65;18.60;;;6.70;99.90;;;;;;6251274;22;20134;-91
2022/01/17 05:32:03;;;;;;;28.50;18.58;;;6.70;99.90;;;;;;6279388;22;20179;-90
2022/01/17 05:34:29;;;;;;;61.00;20.80;;;6.60;99.90;;;;;;6247832;22;20448;-93
2022/01/17 05:36:58;;;;;;;46.53;20.00;;;6.40;99.90;;;;;;6275965;22;20392;-90
2022/01/17 05:39:23;;;;;;;33.20;17.83;;;6.40;99.90;;;;;;6277844;22;20002;-92
2022/01/17 05:41:52;;;;;;;34.58;19.13;;;6.40;99.90;;;;;;6247074;22;20032;-91
2022/01/17 05:44:17;;;;;;;25.88;19.30;;;6.50;99.90;;;;;;6266925;22;20424;-86
2022/01/17 05:46:43;;;;;;;24.92;17.73;;;6.60;99.90;;;;;;6282266;22;20003;-89
2022/01/17 05:49:11;;;;;;;22.95;16.13;;;6.70;99.90;;;;;;6281863;22;20003;-87
2022/01/17 05:51:41;;;;;;;;;;;6.80;99.90;;;;;;6284550;22;20002;-87
2022/01/17 05:54:07;;;;;;;20.50;14.75;;;6.80;99.90;;;;;;6289389;22;19906;-87
2022/01/17 05:56:34;;;;;;;25.10;14.68;;;6.80;99.90;;;;;;6261099;22;20011;-86
2022/01/17 05:59:00;;;;;;;25.90;14.35;;;6.80;99.90;;;;;;6286380;22;20030;-86
2022/01/17 06:01:28;;;;;;;21.75;14.43;;;6.80;99.90;;;;;;6280718;22;20008;-86
2022/01/17 06:04:00;;;;;;;19.58;14.05;;;6.90;99.90;;;;;;6287314;22;20011;-87
2022/01/17 06:06:25;;;;;;;27.58;15.20;;;6.80;99.90;;;;;;6284607;22;20034;-88
2022/01/17 06:08:55;;;;;;;45.63;17.33;;;6.90;99.90;;;;;;6290407;22;20024;-86
2022/01/17 06:11:20;;;;;;;25.17;15.95;;;6.70;99.90;;;;;;6289676;22;20003;-86
2022/01/17 06:13:46;;;;;;;22.40;16.70;;;6.60;99.90;;;;;;6286452;22;20031;-86
2022/01/17 06:16:18;;;;;;;33.08;15.65;;;6.70;99.90;;;;;;6291228;22;20428;-86
2022/01/17 06:18:46;;;;;;;24.42;14.75;;;6.80;99.90;;;;;;6287405;22;20436;-86
2022/01/17 06:21:12;;;;;;;25.48;15.30;;;6.80;99.90;;;;;;6282501;22;20007;-91
2022/01/17 06:23:37;;;;;;;35.65;16.05;;;6.80;99.90;;;;;;6275736;22;20011;-88
2022/01/17 06:26:03;;;;;;;23.77;16.67;;;6.80;99.90;;;;;;6281555;22;19996;-90
2022/01/17 06:28:29;;;;;;;23.60;15.60;;;6.70;99.90;;;;;;6282034;22;19996;-88
2022/01/17 06:30:54;;;;;;;24.60;15.63;;;6.70;99.90;;;;;;6283356;22;20130;-89
2022/01/17 06:33:20;;;;;;;20.52;14.88;;;6.80;99.90;;;;;;6280655;22;20010;-88
2022/01/17 06:35:46;;;;;;;24.83;15.63;;;6.80;99.90;;;;;;6282471;22;20046;-87
2022/01/17 06:38:12;;;;;;;27.58;16.02;;;6.80;99.90;;;;;;6280398;22;20000;-88
2022/01/17 06:40:37;;;;;;;25.05;15.50;;;6.80;99.90;;;;;;6280448;22;20004;-88
2022/01/17 06:43:08;;;;;;;24.17;14.75;;;6.80;99.90;;;;;;6279786;22;20097;-88
2022/01/17 06:45:34;;;;;;;22.95;14.38;;;6.70;99.90;;;;;;6256160;22;20024;-90
2022/01/17 06:48:01;;;;;;;22.52;13.80;;;6.80;99.90;;;;;;6284119;22;20003;-87
2022/01/17 06:50:27;;;;;;;22.27;14.95;;;6.80;99.90;;;;;;6282235;22;20000;-87
2022/01/17 06:52:53;;;;;;;22.77;15.05;;;6.70;99.90;;;;;;6279041;22;20007;-92
2022/01/17 06:55:19;;;;;;;21.80;14.20;;;6.70;99.90;;;;;;6251626;22;20000;-94
2022/01/17 06:57:44;;;;;;;23.27;15.32;;;6.80;99.90;;;;;;6256859;22;20010;-93
2022/01/17 07:00:11;;;;;;;22.45;14.77;;;6.80;99.90;;;;;;6280526;22;20080;-89
2022/01/17 07:02:37;;;;;;;25.35;14.85;;;6.80;99.90;;;;;;6279080;22;20352;-92
2022/01/17 07:05:04;;;;;;;118.82;20.83;;;6.80;99.90;;;;;;6249152;22;20004;-94
2022/01/17 07:07:30;;;;;;;26.05;15.95;;;6.70;99.90;;;;;;6276745;22;20428;-91
2022/01/17 07:09:55;;;;;;;21.38;14.93;;;6.70;99.90;;;;;;6279242;22;20049;-89
2022/01/17 07:12:22;;;;;;;28.83;15.30;;;6.70;99.90;;;;;;6281399;22;20003;-87
2022/01/17 07:14:48;;;;;;;25.05;14.38;;;6.80;99.90;;;;;;6274288;22;20023;-88
2022/01/17 07:17:14;;;;;;;24.58;14.35;;;6.80;99.90;;;;;;6281591;22;20000;-86
2022/01/17 07:19:40;;;;;;;23.02;14.05;;;6.90;99.90;;;;;;6255821;22;20035;-87
2022/01/17 07:22:08;;;;;;;20.98;14.40;;;6.90;99.90;;;;;;6253934;22;20004;-88
2022/01/17 07:24:42;;;;;;;21.35;14.52;;;6.90;99.90;;;;;;6255404;22;20329;-87
2022/01/17 07:27:09;;;;;;;28.83;15.38;;;6.90;99.90;;;;;;6285328;22;20004;-87
2022/01/17 07:29:35;;;;;;;22.35;14.75;;;6.90;99.90;;;;;;6285607;22;20026;-86
2022/01/17 07:32:01;;;;;;;21.23;14.05;;;6.90;99.90;;;;;;6284299;22;20328;-87
2022/01/17 07:34:36;;;;;;;26.60;15.02;;;7.00;99.90;;;;;;6282688;22;20008;-86
2022/01/17 07:37:03;;;;;;;63.42;16.85;;;6.90;99.90;;;;;;6257424;22;20079;-87
2022/01/17 07:39:28;;;;;;;26.88;16.25;;;6.70;99.90;;;;;;6282568;22;20000;-88
2022/01/17 07:41:55;;;;;;;28.45;15.30;;;6.60;99.90;;;;;;6283127;22;20004;-87
2022/01/17 07:44:24;;;;;;;49.08;16.25;;;6.80;99.90;;;;;;6281366;22;20054;-86
2022/01/17 07:46:58;;;;;;;62.35;17.67;;;6.70;99.90;;;;;;6279721;22;19999;-86
2022/01/17 07:49:26;;;;;;;38.63;15.45;;;6.70;99.90;;;;;;6277263;22;20057;-87
2022/01/17 07:52:05;;;;;;;27.58;15.77;;;6.60;99.90;;;;;;6281227;22;19996;-88
2022/01/17 07:54:43;;;;;;;32.55;15.20;;;6.70;99.90;;;;;;6283057;22;20337;-87
2022/01/17 07:57:21;;;;;;;30.15;14.65;;;6.80;99.90;;;;;;6277732;22;19999;-87
2022/01/17 07:59:47;;;;;;;23.77;14.82;;;6.70;99.90;;;;;;6224902;22;20015;-89
2022/01/17 08:02:13;;;;;;;41.45;16.33;;;6.80;99.90;;;;;;6272887;22;20339;-87
2022/01/17 08:04:38;;;;;;;24.83;15.15;;;6.60;99.90;;;;;;6245772;22;20008;-90
2022/01/17 08:07:07;;;;;;;26.63;15.30;;;6.70;99.90;;;;;;6270795;22;20000;-89
2022/01/17 08:09:33;;;;;;;25.48;15.10;;;7.00;99.90;;;;;;6245358;22;20496;-89
2022/01/17 08:12:00;;;;;;;21.20;14.35;;;6.80;99.90;;;;;;6272439;22;20004;-92
2022/01/17 08:14:26;;;;;;;21.77;13.65;;;6.70;99.90;;;;;;6245197;22;20022;-91
2022/01/17 08:16:53;;;;;;;21.60;14.20;;;6.90;99.90;;;;;;6245342;22;20003;-89
2022/01/17 08:19:21;;;;;;;22.02;13.88;;;7.00;99.90;;;;;;6272012;22;20000;-91
2022/01/17 08:21:48;;;;;;;32.47;16.20;;;7.00;99.90;;;;;;6244351;22;20008;-87
2022/01/17 08:24:14;;;;;;;23.15;13.50;;;6.80;99.90;;;;;;6272197;22;20086;-90
2022/01/17 08:26:43;;;;;;;23.83;14.23;;;6.80;99.90;;;;;;6245695;22;20027;-88
2022/01/17 08:29:09;;;;;;;;;;;7.00;99.90;;;;;;6246930;22;20054;-90
2022/01/17 08:31:35;;;;;;;19.58;13.50;;;7.00;99.90;;;;;;6272108;22;20316;-90
2022/01/17 08:34:00;;;;;;;38.88;15.20;;;6.90;99.90;;;;;;6272081;22;20038;-88
2022/01/17 08:36:26;;;;;;;24.52;14.98;;;6.90;99.90;;;;;;6244767;22;20018;-86
2022/01/17 08:38:53;;;;;;;19.90;13.30;;;6.80;99.90;;;;;;6271876;22;20020;-91
2022/01/17 08:41:19;;;;;;;22.95;13.93;;;6.90;99.90;;;;;;6244825;22;20015;-90
2022/01/17 08:43:46;;;;;;;19.58;12.00;;;7.00;99.90;;;;;;6250008;22;20023;-88
2022/01/17 08:46:11;;;;;;;20.60;12.57;;;7.10;99.90;;;;;;6272294;22;20000;-88
2022/01/17 08:48:39;;;;;;;19.70;11.98;;;7.00;99.90;;;;;;6271652;22;20027;-88
2022/01/17 08:51:05;;;;;;;17.17;10.70;;;7.00;99.90;;;;;;6271534;22;20021;-87
2022/01/17 08:53:32;;;;;;;18.35;10.73;;;7.20;99.90;;;;;;6271755;22;20083;-89
2022/01/17 08:55:58;;;;;;;18.27;11.75;;;7.20;99.90;;;;;;6270895;22;19999;-87
2022/01/17 08:58:24;;;;;;;16.77;12.15;;;7.30;99.90;;;;;;6269777;22;20003;-87
2022/01/17 09:00:50;;;;;;;18.85;12.05;;;7.40;99.90;;;;;;6271726;22;20005;-87
2022/01/17 09:03:16;;;;;;;23.70;11.90;;;7.40;99.90;;;;;;6269932;22;20012;-90
2022/01/17 09:05:42;;;;;;;20.17;11.45;;;7.30;99.90;;;;;;6271032;22;20003;-90
2022/01/17 09:08:08;;;;;;;13.45;9.82;;;7.30;99.90;;;;;;6271444;22;20073;-87
2022/01/17 09:10:35;;;;;;;23.02;11.38;;;7.40;99.90;;;;;;6271158;22;20027;-88
2022/01/17 09:13:01;;;;;;;15.75;10.07;;;7.40;99.90;;;;;;6271379;22;20008;-87
2022/01/17 09:15:27;;;;;;;16.15;9.85;;;7.40;99.90;;;;;;6271271;22;20452;-89
2022/01/17 09:17:53;;;;;;;20.77;8.80;;;7.50;99.90;;;;;;6269407;22;20010;-87
2022/01/17 09:20:19;;;;;;;35.47;10.48;;;7.50;99.90;;;;;;6271361;22;20000;-87
2022/01/17 09:22:44;;;;;;;15.88;9.00;;;7.30;99.90;;;;;;6270654;22;20035;-87
2022/01/17 09:25:11;;;;;;;18.65;9.60;;;7.30;99.90;;;;;;6271164;22;20003;-90
2022/01/17 09:27:37;;;;;;;13.88;8.25;;;7.50;99.90;;;;;;6271451;22;20056;-87
2022/01/17 09:30:10;;;;;;;14.07;8.02;;;7.30;99.90;;;;;;6271536;22;20030;-90
2022/01/17 09:32:36;;;;;;;15.85;8.25;;;7.40;99.90;;;;;;6271581;22;20435;-90
2022/01/17 09:35:04;;;;;;;14.75;8.20;;;7.50;99.90;;;;;;6271287;22;20074;-88
2022/01/17 09:37:29;;;;;;;12.43;7.55;;;7.50;99.90;;;;;;6270823;22;20010;-88
2022/01/17 09:39:55;;;;;;;13.60;7.20;;;7.60;99.90;;;;;;6271634;22;20023;-88
2022/01/17 09:42:21;;;;;;;11.25;6.72;;;7.40;99.90;;;;;;6271350;22;20420;-89
2022/01/17 09:44:46;;;;;;;13.05;7.05;;;7.50;99.90;;;;;;6272029;22;20050;-86
2022/01/17 09:47:13;;;;;;;16.27;6.45;;;7.50;99.90;;;;;;6272150;22;20000;-90
2022/01/17 09:49:49;;;;;;;14.45;7.43;;;7.50;99.90;;;;;;6271108;22;20000;-88
2022/01/17 09:52:49;;;;;;;17.75;7.25;;;7.50;99.90;;;;;;6272115;22;19999;-89
2022/01/17 09:55:15;;;;;;;19.48;6.68;;;7.60;99.90;;;;;;6263999;22;20051;-88
2022/01/17 09:57:45;;;;;;;22.92;7.00;;;7.60;99.90;;;;;;6271166;22;20437;-90
2022/01/17 10:00:13;;;;;;;17.17;7.20;;;7.50;99.90;;;;;;6244085;22;20077;-90
2022/01/17 10:02:39;;;;;;;22.55;7.50;;;7.60;99.90;;;;;;6270705;22;20007;-89
2022/01/17 10:05:08;;;;;;;12.30;6.88;;;7.70;99.90;;;;;;6271099;22;20027;-93
2022/01/17 10:07:53;;;;;;;;;;;7.70;99.90;;;;;;6271423;22;20080;-86
2022/01/17 10:10:44;;;;;;;12.90;6.60;;;7.80;99.90;;;;;;6271198;22;19899;-88
2022/01/17 10:13:23;;;;;;;14.52;6.47;;;7.80;99.90;;;;;;6243944;22;20087;-89
2022/01/17 10:15:57;;;;;;;16.88;7.70;;;7.90;99.90;;;;;;6271568;22;20365;-87
2022/01/17 10:18:27;;;;;;;15.93;7.65;;;7.90;99.90;;;;;;6270414;22;20432;-88
2022/01/17 10:20:58;;;;;;;15.40;7.68;;;7.90;99.90;;;;;;6270941;22;20063;-88
2022/01/17 10:29:14;;;;;;;14.35;7.30;;;8.10;99.90;;;;;;6272938;22;20077;-88
2022/01/17 10:37:11;;;;;;;13.77;8.00;;;8.30;99.90;;;;;;6272795;22;20355;-89
2022/01/17 10:40:03;;;;;;;10.38;6.63;;;8.20;99.90;;;;;;6245501;22;20089;-86
2022/01/17 10:42:30;;;;;;;12.88;7.35;;;8.30;99.90;;;;;;6273036;22;20006;-90
2022/01/17 10:45:24;;;;;;;11.98;7.20;;;8.20;99.90;;;;;;6265812;22;20042;-88
2022/01/17 10:47:53;;;;;;;11.20;6.45;;;8.20;99.90;;;;;;6266375;22;20004;-87
2022/01/17 10:50:29;;;;;;;10.63;6.35;;;8.30;99.90;;;;;;6272352;22;20015;-90
2022/01/17 10:52:58;;;;;;;9.73;5.55;;;8.30;99.90;;;;;;6270352;22;20027;-88
2022/01/17 10:55:31;;;;;;;8.27;5.45;;;8.30;99.90;;;;;;6271771;22;20007;-89
2022/01/17 10:58:10;;;;;;;8.95;6.10;;;8.40;99.90;;;;;;6273703;22;20002;-88
2022/01/17 11:00:42;;;;;;;8.90;6.10;;;8.40;99.90;;;;;;6272289;22;20004;-90
2022/01/17 11:03:13;;;;;;;11.75;6.28;;;8.20;99.90;;;;;;6271364;22;20035;-89
2022/01/17 11:05:41;;;;;;;72.45;37.65;;;8.00;99.90;;;;;;6272851;22;20134;-87
2022/01/17 11:08:08;;;;;;;42.47;20.73;;;8.00;99.90;;;;;;6271006;22;20004;-89
2022/01/17 11:10:36;;;;;;;16.35;10.30;;;8.10;99.90;;;;;;6270900;22;20336;-90
2022/01/17 11:13:07;;;;;;;14.77;9.05;;;8.30;99.90;;;;;;6272382;22;20071;-88
2022/01/17 11:15:35;;;;;;;10.48;7.53;;;8.30;99.90;;;;;;6272637;22;20451;-90
2022/01/17 11:18:11;;;;;;;10.88;6.65;;;8.20;99.90;;;;;;6271262;22;20441;-87
2022/01/17 11:20:37;;;;;;;16.60;10.95;;;8.20;99.90;;;;;;6272282;22;20007;-86
2022/01/17 11:23:03;;;;;;;11.75;6.55;;;8.20;99.90;;;;;;6272419;22;20011;-90
2022/01/17 11:25:32;;;;;;;21.52;7.22;;;8.20;99.90;;;;;;6270514;22;20083;-91
2022/01/17 11:27:59;;;;;;;12.02;7.15;;;8.30;99.90;;;;;;6270641;22;20362;-90
2022/01/17 11:30:26;;;;;;;10.52;6.95;;;8.20;99.90;;;;;;6272837;22;20000;-88
2022/01/17 11:32:54;;;;;;;11.40;6.88;;;8.30;99.90;;;;;;6273869;22;20003;-88
2022/01/17 11:35:20;;;;;;;15.55;7.70;;;8.10;99.90;;;;;;6272339;22;20010;-89
2022/01/17 11:37:49;;;;;;;15.75;7.60;;;8.30;99.90;;;;;;6271359;22;20396;-87
2022/01/17 11:40:20;;;;;;;12.95;8.40;;;8.30;99.90;;;;;;6272781;22;19996;-88
2022/01/17 11:42:48;;;;;;;14.35;8.20;;;8.00;99.90;;;;;;6272502;22;20004;-89
2022/01/17 11:45:23;;;;;;;12.13;7.95;;;8.10;99.90;;;;;;6273189;22;20031;-89
2022/01/17 11:47:51;;;;;;;12.98;8.35;;;8.30;99.90;;;;;;6273935;22;20055;-89
2022/01/17 11:50:43;;;;;;;12.63;7.68;;;8.30;99.90;;;;;;6245548;22;20015;-88
2022/01/17 11:53:11;;;;;;;12.93;7.65;;;8.30;99.90;;;;;;6272430;22;20023;-88
2022/01/17 11:58:19;;;;;;;;;;;8.00;99.90;;;;;;6273520;22;20011;-87
2022/01/17 12:01:16;;;;;;;15.63;8.82;;;8.10;99.90;;;;;;6272494;22;19922;-92
2022/01/17 12:03:43;;;;;;;12.52;7.43;;;8.30;99.90;;;;;;6233481;22;20364;-86
2022/01/17 12:06:20;;;;;;;20.92;11.15;;;8.30;99.90;;;;;;6245305;22;20000;-88
2022/01/17 12:08:47;;;;;;;17.20;9.70;;;8.50;99.90;;;;;;6245418;22;20082;-88
2022/01/17 12:11:26;;;;;;;64.78;24.52;;;8.50;99.90;;;;;;6244981;22;19999;-90
2022/01/17 12:13:52;;;;;;;18.70;10.35;;;8.60;99.90;;;;;;6248529;22;20010;-89
2022/01/17 12:16:30;;;;;;;30.17;14.60;;;8.70;99.90;;;;;;6271694;22;20031;-88
2022/01/17 12:19:03;;;;;;;13.63;8.70;;;8.70;99.90;;;;;;6273687;22;19996;-84
2022/01/17 12:21:41;;;;;;;11.68;7.90;;;8.70;99.90;;;;;;6273446;22;20235;-88
2022/01/17 12:24:18;;;;;;;14.33;7.97;;;8.70;99.90;;;;;;6274221;22;20007;-86
2022/01/17 12:27:03;;;;;;;14.32;8.75;;;8.60;99.90;;;;;;6246134;22;20007;-89
2022/01/17 12:29:52;;;;;;;19.90;11.65;;;8.50;99.90;;;;;;6274616;22;20053;-91
2022/01/17 12:32:23;;;;;;;19.60;8.43;;;8.70;99.90;;;;;;6279295;22;20031;-90
2022/01/17 12:34:50;;;;;;;20.15;7.78;;;8.80;99.90;;;;;;6271607;22;20003;-92
2022/01/17 12:37:31;;;;;;;12.25;8.30;;;8.60;99.90;;;;;;6245257;22;20014;-90
2022/01/17 12:40:14;;;;;;;12.38;7.60;;;8.70;99.90;;;;;;6245101;22;20007;-89
2022/01/17 12:42:51;;;;;;;195.05;75.30;;;8.80;99.90;;;;;;6276435;22;20000;-85
2022/01/17 12:45:51;;;;;;;22.95;12.30;;;8.80;99.90;;;;;;6281727;22;20016;-86
2022/01/17 12:48:22;;;;;;;16.13;9.20;;;9.00;99.90;;;;;;6211448;22;20324;-90
2022/01/17 12:50:50;;;;;;;59.85;28.65;;;8.90;99.90;;;;;;6270201;22;20440;-88
2022/01/17 12:53:18;;;;;;;11.80;7.80;;;9.20;99.90;;;;;;6271898;22;20335;-87
2022/01/17 12:55:47;;;;;;;35.72;22.25;;;9.00;99.90;;;;;;6271638;22;20432;-89
2022/01/17 12:58:26;;;;;;;16.75;10.07;;;9.10;99.90;;;;;;6269917;22;20501;-90
2022/01/17 13:00:53;;;;;;;14.73;10.55;;;9.10;99.90;;;;;;6271080;22;20011;-88
2022/01/17 13:03:22;;;;;;;10.13;7.22;;;9.10;99.90;;;;;;6270219;22;20011;-90
2022/01/17 13:05:48;;;;;;;9.07;6.70;;;9.30;99.90;;;;;;6272365;22;19999;-87
2022/01/17 13:08:14;;;;;;;13.45;8.77;;;9.40;99.90;;;;;;6271471;22;20004;-90
2022/01/17 13:10:40;;;;;;;14.05;7.97;;;9.40;99.90;;;;;;6270076;22;20519;-86
2022/01/17 13:13:07;;;;;;;15.45;8.82;;;9.20;99.90;;;;;;6271247;22;20010;-88
2022/01/17 13:15:33;;;;;;;11.32;7.93;;;9.30;99.90;;;;;;6272846;22;20045;-93
2022/01/17 13:17:58;;;;;;;12.00;7.78;;;9.40;99.90;;;;;;6272981;22;19999;-91
2022/01/17 13:20:26;;;;;;;11.23;7.10;;;9.40;99.90;;;;;;6272136;22;20003;-91
2022/01/17 13:22:59;;;;;;;14.43;8.80;;;9.40;99.90;;;;;;6271515;22;20015;-91
2022/01/17 13:25:26;;;;;;;11.52;6.20;;;9.40;99.90;;;;;;6272132;22;20321;-91
2022/01/17 13:27:56;;;;;;;14.15;7.57;;;9.30;99.90;;;;;;6272441;22;20071;-90
2022/01/17 13:30:22;;;;;;;20.08;11.65;;;9.20;99.90;;;;;;6276801;22;20011;-92